Time;durP1;ratioP1;P1;durP2;ratioP2;P2;SDS_P1;SDS_P2;PMS_P1;PMS_P2;Temp;Humidity;BMP_temperature;BMP_pressure;BME280_temperature;BME280_humidity;BME280_pressure;Samples;Min_cycle;Max_cycle;Signal;HPM_P1;HPM_P2
2021/08/31 00:00:21;;;;;;;;;;;14.30;99.90;;;;;;1884531;75;20287;-69
2021/08/31 00:02:48;;;;;;;;;;;14.30;99.90;;;;;;1882613;75;20417;-69
2021/08/31 00:05:15;;;;;;;;;;;14.30;99.90;;;;;;1883709;75;20279;-69
2021/08/31 00:07:42;;;;;;;;;;;14.30;99.90;;;;;;1883301;75;20168;-69
2021/08/31 00:10:10;;;;;;;;;;;14.20;99.90;;;;;;1883085;75;20215;-69
2021/08/31 00:12:37;;;;;;;;;;;14.20;99.90;;;;;;1883041;75;20211;-69
2021/08/31 00:15:04;;;;;;;;;;;14.20;99.90;;;;;;1889970;75;20110;-68
2021/08/31 00:17:31;;;;;;;;;;;14.10;99.90;;;;;;1886890;76;20206;-69
2021/08/31 00:19:58;;;;;;;;;;;14.20;99.90;;;;;;1893350;75;20160;-68
2021/08/31 00:22:25;;;;;;;;;;;14.10;99.90;;;;;;1882402;75;20178;-68
2021/08/31 00:24:51;;;;;;;;;;;14.10;99.90;;;;;;1889623;75;20177;-68
2021/08/31 00:27:18;;;;;;;;;;;14.10;99.90;;;;;;1883145;75;20136;-69
2021/08/31 00:29:45;;;;;;;;;;;14.10;99.90;;;;;;1882713;76;20199;-68
2021/08/31 00:32:12;;;;;;;;;;;14.10;99.90;;;;;;1879782;75;20187;-68
2021/08/31 00:34:39;;;;;;;;;;;14.00;99.90;;;;;;1883968;75;20159;-68
2021/08/31 00:37:05;;;;;;;;;;;13.90;99.90;;;;;;1882115;75;20228;-69
2021/08/31 00:39:32;;;;;;;;;;;14.00;99.90;;;;;;1882688;75;20174;-68
2021/08/31 00:41:59;;;;;;;;;;;13.90;99.90;;;;;;1882458;75;20178;-68
2021/08/31 00:44:27;;;;;;;;;;;13.90;99.90;;;;;;1877740;75;20235;-68
2021/08/31 00:47:01;;;;;;;;;;;13.90;99.90;;;;;;1888864;75;20202;-69
2021/08/31 00:49:28;;;;;;;;;;;13.80;99.90;;;;;;1884214;75;20282;-69
2021/08/31 00:51:56;;;;;;;;;;;13.90;99.90;;;;;;1881198;75;20508;-69
2021/08/31 00:54:24;;;;;;;;;;;13.90;99.90;;;;;;1882838;75;20142;-70
2021/08/31 00:56:51;;;;;;;;;;;13.80;99.90;;;;;;1884502;75;20176;-69
2021/08/31 00:59:21;;;;;;;;;;;13.80;99.90;;;;;;1883237;76;20191;-69
2021/08/31 01:01:51;;;;;;;;;;;13.80;99.90;;;;;;1882010;75;20214;-69
2021/08/31 01:04:18;;;;;;;;;;;13.80;99.90;;;;;;1882673;76;20290;-69
2021/08/31 01:06:46;;;;;;;;;;;13.70;99.90;;;;;;1880468;75;20206;-69
2021/08/31 01:09:13;;;;;;;;;;;13.70;99.90;;;;;;1881398;75;20180;-68
2021/08/31 01:11:40;;;;;;;;;;;13.60;99.90;;;;;;1882316;75;20199;-68
2021/08/31 01:14:07;;;;;;;;;;;13.70;99.90;;;;;;1881334;75;20192;-68
2021/08/31 01:16:34;;;;;;;;;;;13.70;99.90;;;;;;1890682;75;20136;-69
2021/08/31 01:19:01;;;;;;;;;;;13.70;99.90;;;;;;1883113;76;20217;-68
2021/08/31 01:21:29;;;;;;;;;;;13.70;99.90;;;;;;1881681;76;20190;-68
2021/08/31 01:23:56;;;;;;;;;;;13.70;99.90;;;;;;1882127;75;20136;-68
2021/08/31 01:26:22;;;;;;;;;;;13.70;99.90;;;;;;1881590;75;20239;-68
2021/08/31 01:28:49;;;;;;;;;;;13.60;99.90;;;;;;1882861;76;20191;-68
2021/08/31 01:31:16;;;;;;;;;;;13.60;99.90;;;;;;1886592;75;20512;-68
2021/08/31 01:33:43;;;;;;;;;;;13.60;99.90;;;;;;1881163;75;20182;-68
2021/08/31 01:36:14;;;;;;;;;;;13.60;99.90;;;;;;1882711;75;20203;-68
2021/08/31 01:38:41;;;;;;;;;;;13.60;99.90;;;;;;1881463;75;20199;-68
2021/08/31 01:41:08;;;;;;;;;;;13.70;99.90;;;;;;1882007;75;20117;-68
2021/08/31 01:43:35;;;;;;;;;;;13.70;99.90;;;;;;1880949;75;20210;-68
2021/08/31 01:46:02;;;;;;;;;;;13.60;99.90;;;;;;1891668;75;20167;-69
2021/08/31 01:48:29;;;;;;;;;;;13.70;99.90;;;;;;1902649;75;20125;-68
2021/08/31 01:50:55;;;;;;;;;;;13.60;99.90;;;;;;1882170;76;20183;-68
2021/08/31 01:53:22;;;;;;;;;;;13.60;99.90;;;;;;1883210;76;20112;-69
2021/08/31 01:55:49;;;;;;;;;;;13.60;99.90;;;;;;1880874;75;20238;-69
2021/08/31 01:58:16;;;;;;;;;;;13.50;99.90;;;;;;1881471;75;20477;-68
2021/08/31 02:00:43;;;;;;;;;;;13.50;99.90;;;;;;1899526;75;20144;-68
2021/08/31 02:03:10;;;;;;;;;;;13.50;99.90;;;;;;1881961;75;20180;-69
2021/08/31 02:05:36;;;;;;;;;;;13.50;99.90;;;;;;1882667;76;20155;-68
2021/08/31 02:08:03;;;;;;;;;;;13.50;99.90;;;;;;1882355;75;20212;-68
2021/08/31 02:10:30;;;;;;;;;;;13.50;99.90;;;;;;1882405;75;20203;-68
2021/08/31 02:12:57;;;;;;;;;;;13.60;99.90;;;;;;1882334;75;20290;-68
2021/08/31 02:15:24;;;;;;;;;;;13.60;99.90;;;;;;1898251;73;20188;-68
2021/08/31 02:17:51;;;;;;;;;;;13.60;99.90;;;;;;1892787;75;20379;-68
2021/08/31 02:20:18;;;;;;;;;;;13.50;99.90;;;;;;1883724;75;20334;-68
2021/08/31 02:22:45;;;;;;;;;;;13.50;99.90;;;;;;1883235;75;20199;-68
2021/08/31 02:25:11;;;;;;;;;;;13.40;99.90;;;;;;1881317;75;20619;-68
2021/08/31 02:27:38;;;;;;;;;;;13.40;99.90;;;;;;1887515;75;20253;-68
2021/08/31 02:30:06;;;;;;;;;;;13.40;99.90;;;;;;1915342;75;20158;-68
2021/08/31 02:32:33;;;;;;;;;;;13.40;99.90;;;;;;1881245;75;20197;-68
2021/08/31 02:34:59;;;;;;;;;;;13.30;99.90;;;;;;1882669;75;20161;-68
2021/08/31 02:37:27;;;;;;;;;;;13.30;99.90;;;;;;1881427;75;20222;-68
2021/08/31 02:39:53;;;;;;;;;;;13.30;99.90;;;;;;1883001;75;20132;-68
2021/08/31 02:42:20;;;;;;;;;;;13.50;99.90;;;;;;1912489;75;20540;-68
2021/08/31 02:44:47;;;;;;;;;;;13.50;99.90;;;;;;1871043;75;20177;-68
2021/08/31 02:47:14;;;;;;;;;;;13.70;99.90;;;;;;1890607;75;20127;-69
2021/08/31 02:49:41;;;;;;;;;;;13.70;99.90;;;;;;1893098;76;20169;-68
2021/08/31 02:52:08;;;;;;;;;;;13.70;99.90;;;;;;1887560;75;20496;-68
2021/08/31 02:54:35;;;;;;;;;;;13.80;99.90;;;;;;1882399;75;20517;-68
2021/08/31 02:57:01;;;;;;;;;;;13.90;99.90;;;;;;1881630;75;20184;-68
2021/08/31 02:59:29;;;;;;;;;;;13.90;99.90;;;;;;1883209;75;20128;-69
2021/08/31 03:04:26;;;;;;;;;;;13.90;99.90;;;;;;1882868;75;20517;-68
2021/08/31 03:06:53;;;;;;;;;;;13.90;99.90;;;;;;1882609;75;20415;-68
2021/08/31 03:09:19;;;;;;;;;;;13.90;99.90;;;;;;1882158;75;20190;-68
2021/08/31 03:11:46;;;;;;;;;;;13.90;99.90;;;;;;1883171;75;20120;-68
2021/08/31 03:14:18;;;;;;;;;;;14.00;99.90;;;;;;1882466;75;20179;-69
2021/08/31 03:16:41;;;;;;;;;;;14.00;99.90;;;;;;1884983;75;20209;-68
2021/08/31 03:19:08;;;;;;;;;;;13.90;99.90;;;;;;1890461;76;20122;-68
2021/08/31 03:21:35;;;;;;;;;;;14.00;99.90;;;;;;1890282;75;20207;-69
2021/08/31 03:24:02;;;;;;;;;;;14.00;99.90;;;;;;1883172;76;20199;-69
2021/08/31 03:26:29;;;;;;;;;;;13.90;99.90;;;;;;1881679;75;20152;-68
2021/08/31 03:28:55;;;;;;;;;;;13.90;99.90;;;;;;1881724;75;20318;-69
2021/08/31 03:31:22;;;;;;;;;;;13.90;99.90;;;;;;1883301;75;20239;-69
2021/08/31 03:33:49;;;;;;;;;;;13.90;99.90;;;;;;1881140;75;20183;-69
2021/08/31 03:36:16;;;;;;;;;;;14.00;99.90;;;;;;1883089;76;20184;-69
2021/08/31 03:38:43;;;;;;;;;;;13.90;99.90;;;;;;1882554;75;20148;-69
2021/08/31 03:41:10;;;;;;;;;;;13.90;99.90;;;;;;1881199;75;20479;-68
2021/08/31 03:43:39;;;;;;;;;;;13.80;99.90;;;;;;1882061;75;20155;-69
2021/08/31 03:46:06;;;;;;;;;;;13.90;99.90;;;;;;1880820;75;20155;-69
2021/08/31 03:48:32;;;;;;;;;;;13.90;99.90;;;;;;1889576;75;20191;-68
2021/08/31 03:50:59;;;;;;;;;;;13.90;99.90;;;;;;1895277;75;20132;-69
2021/08/31 03:53:26;;;;;;;;;;;13.80;99.90;;;;;;1883310;75;20187;-68
2021/08/31 03:55:53;;;;;;;;;;;13.80;99.90;;;;;;1882883;76;20524;-68
2021/08/31 03:58:19;;;;;;;;;;;13.70;99.90;;;;;;1886747;75;20153;-68
2021/08/31 04:00:46;;;;;;;;;;;13.70;99.90;;;;;;1882396;75;20516;-68
2021/08/31 04:03:13;;;;;;;;;;;13.60;99.90;;;;;;1883240;76;20222;-68
2021/08/31 04:05:40;;;;;;;;;;;13.60;99.90;;;;;;1882360;75;20528;-68
2021/08/31 04:08:07;;;;;;;;;;;13.60;99.90;;;;;;1883312;75;20192;-68
2021/08/31 04:10:34;;;;;;;;;;;13.50;99.90;;;;;;1881492;75;20145;-69
2021/08/31 04:13:01;;;;;;;;;;;13.50;99.90;;;;;;1882766;76;20610;-69
2021/08/31 04:15:27;;;;;;;;;;;13.50;99.90;;;;;;1883754;75;20207;-68
2021/08/31 04:17:54;;;;;;;;;;;13.40;99.90;;;;;;1888197;75;20393;-68
2021/08/31 04:20:21;;;;;;;;;;;13.40;99.90;;;;;;1893930;76;20185;-69
2021/08/31 04:22:48;;;;;;;;;;;13.40;99.90;;;;;;1886804;76;20164;-68
2021/08/31 04:25:15;;;;;;;;;;;13.40;99.90;;;;;;1880888;75;20445;-68
2021/08/31 04:27:41;;;;;;;;;;;13.40;99.90;;;;;;1882901;76;20199;-68
2021/08/31 04:30:08;;;;;;;;;;;13.40;99.90;;;;;;1882605;75;20433;-68
2021/08/31 04:32:35;;;;;;;;;;;13.50;99.90;;;;;;1884651;75;20211;-68
2021/08/31 04:35:03;;;;;;;;;;;13.40;99.90;;;;;;1883142;76;20199;-69
2021/08/31 04:37:30;;;;;;;;;;;13.30;99.90;;;;;;1882960;75;20184;-68
2021/08/31 04:39:57;;;;;;;;;;;13.30;99.90;;;;;;1881778;75;20148;-68
2021/08/31 04:42:24;;;;;;;;;;;13.30;99.90;;;;;;1883011;76;20203;-68
2021/08/31 04:44:51;;;;;;;;;;;13.30;99.90;;;;;;1886775;75;20183;-67
2021/08/31 04:47:19;;;;;;;;;;;13.30;99.90;;;;;;1886450;75;20183;-68
2021/08/31 04:49:46;;;;;;;;;;;13.40;99.90;;;;;;1885534;75;20171;-68
2021/08/31 04:52:13;;;;;;;;;;;13.40;99.90;;;;;;1881905;75;20409;-68
2021/08/31 04:54:40;;;;;;;;;;;13.30;99.90;;;;;;1887895;74;20202;-68
2021/08/31 04:57:06;;;;;;;;;;;13.30;99.90;;;;;;1863861;75;20474;-68
2021/08/31 04:59:33;;;;;;;;;;;13.30;99.90;;;;;;1882503;75;20187;-68
2021/08/31 05:02:00;;;;;;;;;;;13.30;99.90;;;;;;1888841;75;20160;-68
2021/08/31 05:04:30;;;;;;;;;;;13.30;99.90;;;;;;1882426;75;20136;-68
2021/08/31 05:06:57;;;;;;;;;;;13.30;99.90;;;;;;1885206;75;20159;-67
2021/08/31 05:09:24;;;;;;;;;;;13.30;99.90;;;;;;1864193;76;20227;-67
2021/08/31 05:11:51;;;;;;;;;;;13.30;99.90;;;;;;1882350;75;20212;-68
2021/08/31 05:14:18;;;;;;;;;;;13.30;99.90;;;;;;1883260;75;20157;-67
2021/08/31 05:16:45;;;;;;;;;;;13.40;99.90;;;;;;1886100;75;20186;-68
2021/08/31 05:19:11;;;;;;;;;;;13.40;99.90;;;;;;1889320;75;20426;-68
2021/08/31 05:21:38;;;;;;;;;;;13.40;99.90;;;;;;1893608;75;20167;-67
2021/08/31 05:24:05;;;;;;;;;;;13.40;99.90;;;;;;1884539;75;20475;-67
2021/08/31 05:26:32;;;;;;;;;;;13.50;99.90;;;;;;1881600;75;20164;-67
2021/08/31 05:28:58;;;;;;;;;;;13.50;99.90;;;;;;1882105;75;20504;-67
2021/08/31 05:31:25;;;;;;;;;;;13.60;99.90;;;;;;1881589;75;20228;-68
2021/08/31 05:33:52;;;;;;;;;;;13.50;99.90;;;;;;1883195;76;20437;-68
2021/08/31 05:36:19;;;;;;;;;;;13.60;99.90;;;;;;1881041;75;20210;-68
2021/08/31 05:38:46;;;;;;;;;;;13.60;99.90;;;;;;1884176;75;20246;-69
2021/08/31 05:41:12;;;;;;;;;;;13.60;99.90;;;;;;1869388;75;20132;-69
2021/08/31 05:43:39;;;;;;;;;;;13.70;99.90;;;;;;1874145;75;20223;-69
2021/08/31 05:46:06;;;;;;;;;;;13.80;99.90;;;;;;1878740;75;20141;-69
2021/08/31 05:48:33;;;;;;;;;;;13.80;99.90;;;;;;1899891;75;20315;-69
2021/08/31 05:51:00;;;;;;;;;;;13.80;99.90;;;;;;1866159;75;20194;-69
2021/08/31 05:53:26;;;;;;;;;;;13.90;99.90;;;;;;1879516;76;20152;-69
2021/08/31 05:55:53;;;;;;;;;;;14.00;99.90;;;;;;1887605;73;20184;-68
2021/08/31 05:58:21;;;;;;;;;;;14.00;99.90;;;;;;1882500;75;20203;-69
2021/08/31 06:00:48;;;;;;;;;;;14.10;99.90;;;;;;1878029;75;20171;-68
2021/08/31 06:03:15;;;;;;;;;;;14.20;99.90;;;;;;1872309;75;20554;-68
2021/08/31 06:05:41;;;;;;;;;;;14.20;99.90;;;;;;1879305;75;20168;-68
2021/08/31 06:08:08;;;;;;;;;;;14.20;99.90;;;;;;1877412;75;20534;-68
2021/08/31 06:10:35;;;;;;;;;;;14.30;99.90;;;;;;1884395;75;20179;-67
2021/08/31 06:13:02;;;;;;;;;;;14.40;99.90;;;;;;1882660;75;20204;-68
2021/08/31 06:15:29;;;;;;;;;;;14.40;99.90;;;;;;1884459;75;20418;-68
2021/08/31 06:17:56;;;;;;;;;;;14.50;99.90;;;;;;1905625;75;20204;-68
2021/08/31 06:20:23;;;;;;;;;;;14.50;99.90;;;;;;1905486;75;20466;-68
2021/08/31 06:22:49;;;;;;;;;;;14.60;99.90;;;;;;1881872;76;20183;-68
2021/08/31 06:25:16;;;;;;;;;;;14.60;99.90;;;;;;1882204;76;20179;-68
2021/08/31 06:27:43;;;;;;;;;;;14.60;99.90;;;;;;1883240;76;20136;-68
2021/08/31 06:30:10;;;;;;;;;;;14.70;99.90;;;;;;1885093;75;20176;-68
2021/08/31 06:32:37;;;;;;;;;;;14.70;99.90;;;;;;1890955;76;20121;-68
2021/08/31 06:35:04;;;;;;;;;;;14.70;99.90;;;;;;1891905;74;20159;-68
2021/08/31 06:37:30;;;;;;;;;;;14.80;99.90;;;;;;1882961;76;20171;-68
2021/08/31 06:39:57;;;;;;;;;;;14.80;99.90;;;;;;1871211;76;20386;-69
2021/08/31 06:42:24;;;;;;;;;;;14.90;99.90;;;;;;1881819;76;20148;-69
2021/08/31 06:44:51;;;;;;;;;;;14.90;99.90;;;;;;1881187;75;20185;-68
2021/08/31 06:47:18;;;;;;;;;;;15.00;99.90;;;;;;1878700;76;20112;-69
2021/08/31 06:49:44;;;;;;;;;;;15.00;99.90;;;;;;1881930;75;20220;-68
2021/08/31 06:52:11;;;;;;;;;;;15.00;99.90;;;;;;1881568;76;20519;-68
2021/08/31 06:54:38;;;;;;;;;;;15.00;99.90;;;;;;1882217;75;20183;-68
2021/08/31 06:57:05;;;;;;;;;;;15.10;99.90;;;;;;1893101;75;20210;-68
2021/08/31 06:59:33;;;;;;;;;;;15.10;99.90;;;;;;1878550;75;20180;-68
2021/08/31 07:02:00;;;;;;;;;;;15.10;99.90;;;;;;1876963;75;20132;-68
2021/08/31 07:04:27;;;;;;;;;;;15.20;99.90;;;;;;1879296;75;20226;-68
2021/08/31 07:06:53;;;;;;;;;;;15.20;99.90;;;;;;1862191;76;20179;-68
2021/08/31 07:09:20;;;;;;;;;;;15.20;99.90;;;;;;1871157;75;21197;-68
2021/08/31 07:11:47;;;;;;;;;;;15.30;99.90;;;;;;1882629;76;20163;-68
2021/08/31 07:14:14;;;;;;;;;;;15.40;99.90;;;;;;1881328;75;20490;-68
2021/08/31 07:16:41;;;;;;;;;;;15.40;99.90;;;;;;1881151;76;20183;-68
2021/08/31 07:19:07;;;;;;;;;;;15.40;99.90;;;;;;1873844;76;20175;-68
2021/08/31 07:21:34;;;;;;;;;;;15.50;99.90;;;;;;1881468;76;20123;-68
2021/08/31 07:24:01;;;;;;;;;;;15.50;99.90;;;;;;1887019;74;20169;-68
2021/08/31 07:26:28;;;;;;;;;;;15.60;99.90;;;;;;1874104;75;20205;-68
2021/08/31 07:28:55;;;;;;;;;;;15.60;99.90;;;;;;1851425;77;20134;-69
2021/08/31 07:31:21;;;;;;;;;;;15.70;99.90;;;;;;1881804;75;20179;-68
2021/08/31 07:33:48;;;;;;;;;;;15.70;99.90;;;;;;1884473;75;20174;-68
2021/08/31 07:36:20;;;;;;;;;;;15.70;99.90;;;;;;1880653;75;20378;-68
2021/08/31 07:38:44;;;;;;;;;;;15.80;99.90;;;;;;1879381;75;20195;-68
2021/08/31 07:41:10;;;;;;;;;;;15.80;99.90;;;;;;1881906;76;20175;-68
2021/08/31 07:43:37;;;;;;;;;;;15.90;99.90;;;;;;1887769;75;20161;-68
2021/08/31 07:46:04;;;;;;;;;;;15.90;99.90;;;;;;1915414;74;20196;-68
2021/08/31 07:48:31;;;;;;;;;;;15.90;99.90;;;;;;1915609;75;20126;-68
2021/08/31 07:50:58;;;;;;;;;;;16.00;99.90;;;;;;1898563;75;20158;-69
2021/08/31 07:53:24;;;;;;;;;;;16.00;99.90;;;;;;1882101;75;20180;-69
2021/08/31 07:55:51;;;;;;;;;;;16.10;99.90;;;;;;1885865;75;20136;-67
2021/08/31 07:58:18;;;;;;;;;;;16.10;99.90;;;;;;1884915;76;20282;-67
2021/08/31 08:00:45;;;;;;;;;;;16.10;99.90;;;;;;1901492;75;20181;-67
2021/08/31 08:03:12;;;;;;;;;;;16.20;99.90;;;;;;1876078;75;20159;-67
2021/08/31 08:05:38;;;;;;;;;;;16.30;99.90;;;;;;1879613;75;20214;-67
2021/08/31 08:08:05;;;;;;;;;;;16.20;99.90;;;;;;1888765;76;20130;-68
2021/08/31 08:10:32;;;;;;;;;;;16.30;99.90;;;;;;1883144;75;20247;-68
2021/08/31 08:12:59;;;;;;;;;;;16.40;99.90;;;;;;1875094;75;20206;-69
2021/08/31 08:15:26;;;;;;;;;;;16.40;99.90;;;;;;1905421;73;20122;-68
2021/08/31 08:17:52;;;;;;;;;;;16.40;99.90;;;;;;1890727;75;20240;-69
2021/08/31 08:20:19;;;;;;;;;;;16.50;99.90;;;;;;1872265;76;20164;-71
2021/08/31 08:22:46;;;;;;;;;;;16.50;99.90;;;;;;1876275;75;20186;-69
2021/08/31 08:25:14;;;;;;;;;;;16.60;99.90;;;;;;1875565;75;20164;-69
2021/08/31 08:27:41;;;;;;;;;;;16.60;99.90;;;;;;1870097;75;20182;-69
2021/08/31 08:30:08;;;;;;;;;;;16.70;99.90;;;;;;1882441;75;20116;-69
2021/08/31 08:32:35;;;;;;;;;;;16.70;99.90;;;;;;1881772;75;20154;-69
2021/08/31 08:35:02;;;;;;;;;;;16.70;99.90;;;;;;1877990;75;20222;-69
2021/08/31 08:37:29;;;;;;;;;;;16.70;99.90;;;;;;1875648;75;20523;-69
2021/08/31 08:39:56;;;;;;;;;;;16.70;99.90;;;;;;1878864;75;20187;-67
2021/08/31 08:42:22;;;;;;;;;;;16.80;99.90;;;;;;1880720;75;21189;-71
2021/08/31 08:44:49;;;;;;;;;;;16.90;99.90;;;;;;1881784;75;20195;-68
2021/08/31 08:47:16;;;;;;;;;;;16.90;99.90;;;;;;1879078;75;20179;-67
2021/08/31 08:49:45;;;;;;;;;;;17.00;99.90;;;;;;1878303;75;20495;-68
2021/08/31 08:52:12;;;;;;;;;;;16.90;99.90;;;;;;1878357;75;20206;-68
2021/08/31 08:54:40;;;;;;;;;;;17.00;99.90;;;;;;1882440;75;20144;-67
2021/08/31 08:57:07;;;;;;;;;;;17.00;99.90;;;;;;1873984;75;20125;-68
2021/08/31 08:59:37;;;;;;;;;;;17.10;99.90;;;;;;1879967;75;20179;-68
2021/08/31 09:02:02;;;;;;;;;;;17.10;99.90;;;;;;1874993;75;20467;-69
2021/08/31 09:04:42;;;;;;;;;;;17.20;99.90;;;;;;1883291;71;20133;-67
2021/08/31 09:07:20;;;;;;;;;;;17.20;99.90;;;;;;1880897;75;20245;-69
2021/08/31 09:09:50;;;;;;;;;;;17.30;99.90;;;;;;1886690;75;20518;-70
2021/08/31 09:12:30;;;;;;;;;;;17.30;99.90;;;;;;1875989;75;20150;-68
2021/08/31 09:14:59;;;;;;;;;;;17.40;99.90;;;;;;1881290;75;20390;-69
2021/08/31 09:17:25;;;;;;;;;;;17.50;99.90;;;;;;1878626;76;20216;-68
2021/08/31 09:19:52;;;;;;;;;;;17.60;99.90;;;;;;1883475;76;20167;-69
2021/08/31 09:22:21;;;;;;;;;;;17.50;99.90;;;;;;1877522;76;20115;-69
2021/08/31 09:25:01;;;;;;;;;;;17.80;99.90;;;;;;1835492;77;20430;-69
2021/08/31 09:27:32;;;;;;;;;;;17.70;99.90;;;;;;1833565;78;20107;-69
2021/08/31 09:30:00;;;;;;;;;;;17.90;99.90;;;;;;1834257;78;20173;-69
2021/08/31 09:32:32;;;;;;;;;;;17.90;99.90;;;;;;1835871;76;20466;-69
2021/08/31 09:34:55;;;;;;;;;;;18.00;99.90;;;;;;1834415;77;20153;-69
2021/08/31 09:37:30;;;;;;;;;;;18.20;99.90;;;;;;1834327;77;20134;-69
2021/08/31 09:40:01;;;;;;;;;;;18.30;99.90;;;;;;1844651;77;20286;-69
2021/08/31 09:42:27;;;;;;;;;;;18.30;99.90;;;;;;1829155;78;20169;-69
2021/08/31 09:45:04;;;;;;;;;;;18.30;99.90;;;;;;1834327;77;20157;-69
2021/08/31 09:47:37;;;;;;;;;;;18.40;99.90;;;;;;1849645;77;20495;-69
2021/08/31 09:53:03;;;;;;;;;;;18.60;99.90;;;;;;1908338;74;20175;-70
2021/08/31 09:55:30;;;;;;;;;;;18.80;99.90;;;;;;1925981;74;20159;-70
2021/08/31 09:58:01;;;;;;;;;;;18.80;99.90;;;;;;1959284;73;20202;-69
2021/08/31 10:00:28;;;;;;;;;;;18.80;99.90;;;;;;1952078;73;20366;-69
2021/08/31 10:02:55;;;;;;;;;;;18.90;99.90;;;;;;1946494;73;20200;-69
2021/08/31 10:05:24;;;;;;;;;;;19.00;99.90;;;;;;1941636;74;20168;-69
2021/08/31 10:07:50;;;;;;;;;;;19.10;99.90;;;;;;1941589;74;20149;-70
2021/08/31 10:10:18;;;;;;;;;;;19.20;99.90;;;;;;1941928;74;20160;-69
2021/08/31 10:12:45;;;;;;;;;;;19.20;99.90;;;;;;1942866;73;20236;-69
2021/08/31 10:15:12;;;;;;;;;;;19.10;99.90;;;;;;1941486;74;20179;-70
2021/08/31 10:17:40;;;;;;;;;;;19.20;99.90;;;;;;1941748;74;20134;-69
2021/08/31 10:20:07;;;;;;;;;;;19.30;99.90;;;;;;1941614;74;20304;-69
2021/08/31 10:22:35;;;;;;;;;;;19.40;99.90;;;;;;1941481;74;20180;-69
2021/08/31 10:25:02;;;;;;;;;;;19.40;99.90;;;;;;1941483;74;20399;-68
2021/08/31 10:27:37;;;;;;;;;;;19.40;99.90;;;;;;1941734;74;20422;-68
2021/08/31 10:30:17;;;;;;;;;;;19.40;99.90;;;;;;1947597;73;20146;-70
2021/08/31 10:32:45;;;;;;;;;;;19.60;99.90;;;;;;1908339;75;20174;-70
2021/08/31 10:35:13;;;;;;;;;;;19.60;99.90;;;;;;1939450;74;20382;-70
2021/08/31 10:37:44;;;;;;;;;;;19.70;99.90;;;;;;1936624;74;20795;-70
2021/08/31 10:40:12;;;;;;;;;;;19.80;99.90;;;;;;1941124;74;20117;-70
2021/08/31 10:42:39;;;;;;;;;;;19.80;99.90;;;;;;1941718;74;20152;-72
2021/08/31 10:45:07;;;;;;;;;;;19.90;99.90;;;;;;1941819;73;20116;-70
2021/08/31 10:47:36;;;;;;;;;;;19.90;99.90;;;;;;1937690;74;20218;-70
2021/08/31 10:50:05;;;;;;;;;;;20.00;99.90;;;;;;1941641;74;20184;-69
2021/08/31 10:52:43;;;;;;;;;;;19.90;99.90;;;;;;1956649;72;20115;-70
2021/08/31 10:55:20;;;;;;;;;;;20.00;99.90;;;;;;1976677;73;20486;-69
2021/08/31 10:57:47;;;;;;;;;;;20.00;99.90;;;;;;1952816;73;20171;-69
2021/08/31 11:00:18;;;;;;;;;;;20.20;99.90;;;;;;1957464;73;20144;-68
2021/08/31 11:02:49;;;;;;;;;;;20.20;99.90;;;;;;1961044;73;20445;-69
2021/08/31 11:05:20;;;;;;;;;;;20.20;99.90;;;;;;1961185;73;20100;-69
2021/08/31 11:07:48;;;;;;;;;;;20.30;99.90;;;;;;1961303;73;20405;-68
2021/08/31 11:10:25;;;;;;;;;;;20.30;99.90;;;;;;1956224;73;20164;-69
2021/08/31 11:12:53;;;;;;;;;;;20.40;99.90;;;;;;1941943;73;20147;-69
2021/08/31 11:15:24;;;;;;;;;;;20.50;99.90;;;;;;1941721;74;20457;-69
2021/08/31 11:17:51;;;;;;;;;;;20.50;99.90;;;;;;1940234;74;20152;-69
2021/08/31 11:20:28;;;;;;;;;;;20.50;99.90;;;;;;1941517;74;20183;-69
2021/08/31 11:22:56;;;;;;;;;;;20.60;99.90;;;;;;1941719;74;20117;-69
2021/08/31 11:25:30;;;;;;;;;;;20.70;99.90;;;;;;1931485;74;20823;-68
2021/08/31 11:27:58;;;;;;;;;;;20.60;99.90;;;;;;1942220;73;20172;-68
2021/08/31 11:30:26;;;;;;;;;;;20.50;99.90;;;;;;1941842;74;20172;-68
2021/08/31 11:33:11;;;;;;;;;;;20.70;99.90;;;;;;1941867;74;20109;-69
2021/08/31 11:35:38;;;;;;;;;;;20.80;99.90;;;;;;1934954;74;20157;-69
2021/08/31 11:38:04;;;;;;;;;;;20.80;99.90;;;;;;1941571;74;20109;-69
2021/08/31 11:40:31;;;;;;;;;;;20.80;99.90;;;;;;1941851;74;20150;-68
2021/08/31 11:42:58;;;;;;;;;;;20.70;99.90;;;;;;1936070;73;20169;-68
2021/08/31 11:45:39;;;;;;;;;;;20.60;99.90;;;;;;1941456;74;20167;-68
2021/08/31 11:48:06;;;;;;;;;;;20.60;99.90;;;;;;1941708;74;20160;-68
2021/08/31 11:50:34;;;;;;;;;;;20.80;99.90;;;;;;1941940;74;20145;-68
2021/08/31 11:53:13;;;;;;;;;;;20.90;99.90;;;;;;1941985;74;20452;-69
2021/08/31 11:55:40;;;;;;;;;;;21.00;99.90;;;;;;1941740;73;20453;-69
2021/08/31 11:58:07;;;;;;;;;;;21.10;99.90;;;;;;1941994;74;20160;-68
2021/08/31 12:00:44;;;;;;;;;;;21.20;99.90;;;;;;1941761;74;20520;-68
2021/08/31 12:03:24;;;;;;;;;;;21.10;99.90;;;;;;1941836;74;20442;-68
2021/08/31 12:06:01;;;;;;;;;;;20.80;99.90;;;;;;1941612;74;20406;-69
2021/08/31 12:08:30;;;;;;;;;;;21.00;99.90;;;;;;1941759;74;20109;-69
2021/08/31 12:10:57;;;;;;;;;;;21.10;99.90;;;;;;1950800;73;20278;-68
2021/08/31 12:13:24;;;;;;;;;;;21.40;99.90;;;;;;1961391;73;20138;-69
2021/08/31 12:15:52;;;;;;;;;;;21.10;99.90;;;;;;1961134;73;20201;-69
2021/08/31 12:18:19;;;;;;;;;;;20.90;99.90;;;;;;1944912;73;20215;-69
2021/08/31 12:20:47;;;;;;;;;;;21.00;99.90;;;;;;1941484;74;20125;-68
2021/08/31 12:23:14;;;;;;;;;;;21.40;99.90;;;;;;1941539;74;20442;-69
2021/08/31 12:25:42;;;;;;;;;;;21.60;99.90;;;;;;1953916;73;20209;-68
2021/08/31 12:28:10;;;;;;;;;;;21.80;99.90;;;;;;1956111;73;20175;-68
2021/08/31 12:30:40;;;;;;;;;;;21.50;99.90;;;;;;1941564;74;20113;-69
2021/08/31 12:33:08;;;;;;;;;;;21.20;99.90;;;;;;1941985;73;20214;-69
2021/08/31 12:35:40;;;;;;;;;;;21.00;99.90;;;;;;1941534;74;20160;-68
2021/08/31 12:38:16;;;;;;;;;;;21.10;99.90;;;;;;1941763;74;20164;-69
2021/08/31 12:40:54;;;;;;;;;;;21.50;99.90;;;;;;1959970;73;20140;-69
2021/08/31 12:43:21;;;;;;;;;;;21.80;99.90;;;;;;1961159;73;20104;-68
2021/08/31 12:45:50;;;;;;;;;;;21.90;99.90;;;;;;1957931;72;20126;-69
2021/08/31 12:48:17;;;;;;;;;;;21.90;99.90;;;;;;1976669;73;20474;-68
2021/08/31 12:51:04;;;;;;;;;;;21.60;99.90;;;;;;1976564;73;20511;-69
2021/08/31 12:53:28;;;;;;;;;;;21.40;99.90;;;;;;1968411;73;20229;-69
2021/08/31 12:56:02;;;;;;;;;;;21.70;99.90;;;;;;1952828;72;20101;-67
2021/08/31 12:58:34;;;;;;;;;;;22.20;99.90;;;;;;1961213;73;20142;-67
2021/08/31 13:01:04;;;;;;;;;;;21.80;99.90;;;;;;1951780;73;20195;-70
2021/08/31 13:03:31;;;;;;;;;;;21.30;99.90;;;;;;1941550;74;20117;-69
2021/08/31 13:05:58;;;;;;;;;;;21.30;99.90;;;;;;1941581;74;20168;-68
2021/08/31 13:08:25;;;;;;;;;;;21.70;99.90;;;;;;1942280;73;20125;-68
2021/08/31 13:10:52;;;;;;;;;;;22.10;99.90;;;;;;1941772;74;20535;-68
2021/08/31 13:13:27;;;;;;;;;;;22.10;99.90;;;;;;1941871;74;20168;-68
2021/08/31 13:15:53;;;;;;;;;;;22.00;99.90;;;;;;1940864;74;20395;-69
2021/08/31 13:18:20;;;;;;;;;;;22.10;99.90;;;;;;1941684;74;20508;-68
2021/08/31 13:20:47;;;;;;;;;;;21.90;99.90;;;;;;1941468;74;20172;-68
2021/08/31 13:23:14;;;;;;;;;;;21.80;99.90;;;;;;1941859;73;20214;-68
2021/08/31 13:25:41;;;;;;;;;;;21.80;99.90;;;;;;1941038;74;20196;-68
2021/08/31 13:28:08;;;;;;;;;;;21.90;99.90;;;;;;1941553;74;20148;-69
2021/08/31 13:30:35;;;;;;;;;;;22.10;99.90;;;;;;1941815;74;20219;-68
2021/08/31 13:33:02;;;;;;;;;;;22.20;99.90;;;;;;1941867;74;20116;-69
2021/08/31 13:35:29;;;;;;;;;;;22.30;99.90;;;;;;1937890;74;20512;-68
2021/08/31 13:37:56;;;;;;;;;;;22.50;99.90;;;;;;1941790;73;20125;-69
2021/08/31 13:40:22;;;;;;;;;;;22.50;99.90;;;;;;1941951;74;20143;-68
2021/08/31 13:42:49;;;;;;;;;;;22.50;99.90;;;;;;1941196;74;20238;-69
2021/08/31 13:45:16;;;;;;;;;;;22.50;99.90;;;;;;1941267;74;20109;-68
2021/08/31 13:47:43;;;;;;;;;;;22.60;99.90;;;;;;1941621;74;20466;-68
2021/08/31 13:50:10;;;;;;;;;;;22.60;99.90;;;;;;1941871;73;20176;-68
2021/08/31 13:52:37;;;;;;;;;;;22.80;99.90;;;;;;1941730;74;20121;-68
2021/08/31 13:55:04;;;;;;;;;;;22.80;99.90;;;;;;1941449;74;20195;-68
2021/08/31 13:57:30;;;;;;;;;;;22.80;99.90;;;;;;1941703;74;20394;-69
2021/08/31 13:59:57;;;;;;;;;;;22.80;99.90;;;;;;1941439;74;20180;-69
2021/08/31 14:02:24;;;;;;;;;;;22.80;99.90;;;;;;1941480;74;20511;-69
2021/08/31 14:04:51;;;;;;;;;;;22.90;99.90;;;;;;1946749;73;20195;-68
2021/08/31 14:07:18;;;;;;;;;;;22.90;99.90;;;;;;1961157;73;20159;-69
2021/08/31 14:09:47;;;;;;;;;;;22.90;99.90;;;;;;1961256;73;20370;-69
2021/08/31 14:12:13;;;;;;;;;;;22.90;99.90;;;;;;1960876;73;20144;-68
2021/08/31 14:14:40;;;;;;;;;;;22.60;99.90;;;;;;1961110;73;20284;-69
2021/08/31 14:17:07;;;;;;;;;;;22.50;99.90;;;;;;1949224;73;20215;-68
2021/08/31 14:19:35;;;;;;;;;;;22.50;99.90;;;;;;1941947;73;20184;-68
2021/08/31 14:22:02;;;;;;;;;;;22.60;99.90;;;;;;1941698;74;20484;-69
2021/08/31 14:24:29;;;;;;;;;;;22.70;99.90;;;;;;1941778;74;20155;-68